Hovedside
METAR-TAF:

METAR-TAF

Lufthavner :

Julius Nyerere internasjonale lufthavn

Dar-es-Salaam, Tanzania

breddegrad: 06-52S, lengdegrad: 039-12E, høyde over havet: 55 m

Gjeldene værobservasjon

Denne rapporten ble laget for 50 minutter siden, klokken 09:00 UTC
Vind 13 kt fra Nord-nordøst
Temperatur 29°C
Luftfuktighet 58%
Trykk 1016 hPa
Sikt 10 km eller mer
Få skyer i en høyde av 2800 ft
Brutte skyer i en høyde av 3000 ft

METAR: HTDA 200900Z 03013KT 9999 FEW028 BKN030 29/20 Q1016 NOSIG

Tid: 12:50 (09:50 UTC)

Varsel

Denne rapporten ble laget for 4 timer og 50 minutter siden, klokken 05:00 UTC
Varsel gyldig fra 20. klokken 06 UTC til 21. klokken 12 UTC
Vind 10 kt fra Sørøst
Sikt 10 km eller mer
Brutte skyer i en høyde av 2700 ft
Blir
fra 20. klokken 15 UTC til 20. klokken 18 UTC
Spredte skyer i en høyde av 1500 ft

TAF: HTDA 200500Z 2006/2112 14010KT 9999 BKN027 BECMG 2015/2018 SCT015

Værobservasjoner og værvarsel for over 4000 flyplasser (METAR- og TAF-rapporter).

Tilgjengelige stasjoner er representert av de røde og gule prikkene på kartet.

Hold musepekeren over prikken for å se navnet på stasjonen.

Klikk så for å se værobservasjoner og -varsler.

For å forandre kartet kan du klikke på den grønne knappen med svart kryss for å zoome inn, på den grønne knappen med strek for å zoome ut, eller på de grønne pilene for å se tilstøtende kart.


METAR-TAF: